Bookmark and Share
Track history (hours):
 

Chieftan

Last reported at 2013-Oct-24 06:19 UTC. Time now 2014-Apr-17 18:29 UTC.
Position N 16°46' W 062°24'.
Warning: this ship's position is months out of date.

Length 25 m; draft 3.8 m.

Type: Ship. MMSI: 347001900.

NotesDate/timePositionNaut miles runAvg speedWind from/ knotsBaromVisibWave heightAir tempDewpointWater temp
2013-Oct-24 06:19N 16°46' W 062°24'7 8.8
2013-Oct-24 05:32N 16°52' W 062°29'17 8.5
2013-Oct-24 03:33N 17°05' W 062°40'9 8.9
2013-Oct-24 02:32N 17°11' W 062°46'9 8.9
2013-Oct-24 01:33N 17°18' W 062°52'9 8.5
2013-Oct-24 00:33N 17°25' W 062°58'5 4.6
2013-Oct-23 23:33N 17°29' W 063°00'0 0.0
2013-Oct-23 22:34N 17°29' W 063°00'0 0.0
2013-Oct-23 21:33N 17°29' W 063°00'0 0.3
2013-Oct-23 20:32N 17°29' W 062°60'0 0.0
2013-Oct-23 19:33N 17°29' W 062°60'0 0.0
2013-Oct-23 18:31N 17°29' W 062°60'0 0.0
2013-Oct-23 17:27N 17°29' W 062°60'0 0.0
2013-Oct-23 16:33N 17°29' W 062°60'0 0.2
2013-Oct-23 15:33N 17°29' W 063°00'0 0.2
2013-Oct-23 14:33N 17°29' W 062°60'0 0.0
2013-Oct-23 13:32N 17°29' W 062°60'0 0.0
2013-Oct-23 12:33N 17°29' W 062°60'0 0.5
2013-Oct-23 11:34N 17°29' W 063°00'0 0.4
2013-Oct-23 10:30N 17°29' W 063°00'0 0.0
2013-Oct-23 09:33N 17°29' W 063°00'0 0.0
2013-Oct-23 08:33N 17°29' W 063°00'0 0.0
2013-Oct-23 07:34N 17°29' W 063°00'0 0.3
2013-Oct-23 06:33N 17°30' W 063°00'0 0.2
2013-Oct-23 03:34N 17°29' W 063°00'0 0.0
2013-Oct-23 02:34N 17°29' W 063°00'0 0.0
2013-Oct-23 01:34N 17°29' W 063°00'0 0.0
2013-Oct-23 00:34N 17°29' W 063°00'0 0.0
2013-Oct-22 23:33N 17°29' W 063°00'0 0.0
2013-Oct-22 22:34N 17°29' W 063°00'0 0.3
2013-Oct-22 21:34N 17°29' W 063°00'0 0.1
2013-Oct-22 20:08N 17°29' W 063°00'0 0.7
2013-Oct-22 19:33N 17°29' W 063°00'0 0.0
2013-Oct-22 18:33N 17°29' W 063°00'0 0.0
2013-Oct-22 17:33N 17°29' W 063°00'0 0.2
2013-Oct-22 16:33N 17°29' W 063°00'0 0.2
2013-Oct-22 15:33N 17°29' W 063°00'0 0.0
2013-Oct-22 14:33N 17°29' W 063°00'0 0.0
2013-Oct-22 13:33N 17°29' W 063°00'0 0.0
2013-Oct-22 12:33N 17°29' W 063°00'0 0.0
2013-Oct-22 11:31N 17°29' W 063°00'0 0.0
2013-Oct-22 10:33N 17°29' W 063°00'0 0.0
2013-Oct-22 09:30N 17°29' W 063°00'0 0.0
2013-Oct-22 08:21N 17°29' W 063°00'0 0.0
2013-Oct-22 07:22N 17°29' W 063°00'0 0.0
2013-Oct-22 06:33N 17°29' W 063°00'0 0.0
2013-Oct-22 05:33N 17°29' W 063°00'0 0.0
2013-Oct-22 04:33N 17°29' W 063°00'0 0.0
2013-Oct-22 03:33N 17°29' W 063°00'0 0.0
2013-Oct-22 02:33N 17°29' W 063°00'0 0.0
2013-Oct-22 01:32N 17°29' W 063°00'0 0.0
2013-Oct-22 00:33N 17°29' W 063°00'0 0.1
2013-Oct-21 23:33N 17°29' W 063°00'0 0.1
2013-Oct-21 22:33N 17°29' W 063°00'0 0.0
2013-Oct-21 21:33N 17°29' W 063°00'0 0.1
2013-Oct-21 20:33N 17°29' W 063°00'0 0.1
2013-Oct-21 19:33N 17°29' W 063°00'0 0.0
2013-Oct-21 18:33N 17°29' W 063°00'0 0.1
2013-Oct-21 17:33N 17°29' W 063°00'0 0.0
2013-Oct-21 16:33N 17°29' W 063°00'0 0.0
2013-Oct-21 15:33N 17°29' W 063°00'0 0.0
2013-Oct-21 14:33N 17°29' W 063°00'0 0.0
2013-Oct-21 13:33N 17°29' W 063°00'0 0.0
2013-Oct-21 12:33N 17°29' W 063°00'0 0.0
2013-Oct-21 11:33N 17°29' W 063°00'0 0.0
2013-Oct-21 10:33N 17°29' W 063°00'0 0.0
2013-Oct-21 09:33N 17°29' W 063°00'0 0.0
2013-Oct-21 08:34N 17°29' W 063°00'0 0.0
2013-Oct-21 07:33N 17°29' W 063°00'0 0.0
2013-Oct-21 06:33N 17°29' W 063°00'0 0.0
2013-Oct-21 05:33N 17°29' W 063°00'0 0.0
2013-Oct-21 04:33N 17°29' W 063°00'0 0.0
2013-Oct-21 03:33N 17°29' W 063°00'0 0.0
2013-Oct-21 02:33N 17°29' W 063°00'0 0.1
2013-Oct-21 01:33N 17°29' W 063°00'0 0.1
2013-Oct-21 00:33N 17°29' W 063°00'0 0.1
2013-Oct-20 22:19N 17°29' W 063°00'0 0.0
2013-Oct-20 21:19N 17°29' W 063°00'0 0.0
2013-Oct-20 20:33N 17°29' W 063°00'0 0.0
2013-Oct-20 19:32N 17°29' W 063°00'0 0.0
2013-Oct-20 18:26N 17°29' W 063°00'0 0.0
2013-Oct-20 17:33N 17°29' W 063°00'0 0.1
2013-Oct-20 16:32N 17°29' W 063°00'0 0.1
2013-Oct-20 15:33N 17°29' W 063°00'0 0.2
2013-Oct-20 14:33N 17°29' W 063°00'0 0.0
2013-Oct-20 13:33N 17°29' W 063°00'0 0.0
2013-Oct-20 12:33N 17°29' W 063°00'1 0.8
2013-Oct-20 11:31N 17°29' W 062°60'0 0.1
2013-Oct-20 10:33N 17°29' W 062°59'0 0.0
2013-Oct-20 09:33N 17°29' W 062°59'0 0.0
2013-Oct-20 08:33N 17°29' W 062°59'0 0.0
2013-Oct-20 07:33N 17°29' W 062°59'0 0.0
2013-Oct-20 06:33N 17°29' W 062°59'0 0.0
2013-Oct-20 05:33N 17°29' W 062°59'0 0.0
2013-Oct-20 04:33N 17°29' W 062°59'0 0.0
2013-Oct-20 03:33N 17°29' W 062°59'0 0.0
2013-Oct-20 02:33N 17°29' W 062°59'0 0.0
2013-Oct-20 01:33N 17°29' W 062°59'0 0.0
2013-Oct-20 00:33N 17°29' W 062°59'0 0.0
2013-Oct-19 23:34N 17°29' W 062°59'0 0.0
2013-Oct-19 22:33N 17°29' W 062°59'1 0.4
2013-Oct-19 21:21N 17°29' W 062°60'0 0.0
2013-Oct-19 20:31N 17°29' W 062°60'0 0.0
2013-Oct-19 19:33N 17°29' W 062°60'0 0.0
2013-Oct-19 18:25N 17°29' W 062°60'0 0.0
2013-Oct-19 17:33N 17°29' W 062°60'0 0.0
2013-Oct-19 16:33N 17°29' W 062°60'1 0.5
2013-Oct-19 15:33N 17°29' W 062°59'0 0.0
2013-Oct-19 14:33N 17°29' W 062°59'0 0.0
2013-Oct-19 13:33N 17°29' W 062°59'0 0.0
2013-Oct-19 12:33N 17°29' W 062°59'0 0.0
2013-Oct-19 11:34N 17°29' W 062°59'0 0.0
2013-Oct-19 10:33N 17°29' W 062°59'0 0.0
2013-Oct-19 09:33N 17°29' W 062°59'0 0.0
2013-Oct-19 08:33N 17°29' W 062°59'0 0.0
2013-Oct-19 07:33N 17°29' W 062°59'0 0.0
2013-Oct-19 06:33N 17°29' W 062°59'0 0.0
2013-Oct-19 05:33N 17°29' W 062°59'0 0.0
2013-Oct-19 04:33N 17°29' W 062°59'0 0.0
2013-Oct-19 03:33N 17°29' W 062°59'0 0.0
2013-Oct-19 02:33N 17°29' W 062°59'0 0.0
2013-Oct-19 01:33N 17°29' W 062°59'0 0.1
2013-Oct-19 00:33N 17°29' W 062°59'0 0.0
2013-Oct-18 23:33N 17°29' W 062°59'0 0.0
2013-Oct-18 22:33N 17°29' W 062°59'1 0.3
2013-Oct-18 20:30N 17°29' W 062°60'1 0.9
2013-Oct-18 19:33N 17°30' W 063°00'0 0.3
2013-Oct-18 18:33N 17°30' W 063°01'1 0.7
2013-Oct-18 17:33N 17°29' W 062°60'1 0.1
2013-Oct-18 12:17N 17°30' W 063°00'1 1.1
2013-Oct-18 11:33N 17°29' W 063°00'0 0.0
2013-Oct-18 10:33N 17°29' W 063°00'0 0.0
2013-Oct-18 09:32N 17°29' W 063°00'0 0.1
2013-Oct-18 08:32N 17°29' W 063°00'0 0.1
2013-Oct-18 07:33N 17°29' W 063°00'0 0.0
2013-Oct-18 06:33N 17°29' W 063°00'0 0.0
2013-Oct-18 05:33N 17°29' W 063°00'0 0.4
2013-Oct-18 04:29N 17°29' W 062°60'0 0.0
2013-Oct-18 02:26N 17°29' W 063°00'0 0.0
2013-Oct-18 01:32N 17°29' W 062°60'1 0.9
2013-Oct-18 00:21N 17°30' W 063°00'0 0.6
2013-Oct-17 23:30N 17°29' W 063°00'0 0.0
2013-Oct-17 22:30N 17°29' W 063°00'0 0.4
2013-Oct-17 21:33N 17°29' W 062°60'0 0.0
2013-Oct-17 20:17N 17°29' W 062°60'0 0.0
2013-Oct-17 19:33N 17°29' W 062°60'0 0.0
2013-Oct-17 18:32N 17°29' W 062°60'0 0.0
2013-Oct-17 17:33N 17°29' W 062°60'1 0.2
2013-Oct-17 13:20N 17°30' W 063°00'1 1.0
2013-Oct-17 12:33N 17°29' W 063°00'0 0.0
2013-Oct-17 11:31N 17°29' W 063°00'1 1.0
2013-Oct-17 10:33N 17°29' W 063°01'1 0.9
2013-Oct-17 09:33N 17°29' W 063°00'0 0.0
2013-Oct-17 08:33N 17°29' W 063°00'0 0.0
2013-Oct-17 07:33N 17°29' W 063°00'0 0.0
2013-Oct-17 06:33N 17°29' W 063°00'0 0.0
2013-Oct-17 05:33N 17°29' W 063°00'0 0.0
2013-Oct-17 04:33N 17°29' W 063°00'0 0.0
2013-Oct-17 03:33N 17°29' W 063°00'0 0.0
2013-Oct-17 02:33N 17°29' W 063°00'0 0.1
2013-Oct-17 01:32N 17°29' W 063°00'1 0.8
2013-Oct-17 00:33N 17°30' W 063°01'1 0.7
2013-Oct-16 23:25N 17°30' W 063°00'1 1.6
2013-Oct-16 22:33N 17°29' W 062°59'0 0.0
2013-Oct-16 21:33N 17°29' W 062°59'0 0.0
2013-Oct-16 20:33N 17°29' W 062°59'1 0.4
2013-Oct-16 19:07N 17°29' W 062°60'0 0.0
2013-Oct-16 18:33N 17°29' W 062°60'0 0.0
2013-Oct-16 17:22N 17°29' W 062°60'0 0.0
2013-Oct-16 16:29N 17°29' W 062°60'0 0.0
2013-Oct-16 15:33N 17°29' W 062°60'0 0.0
2013-Oct-16 12:30N 17°29' W 062°60'1 1.1
2013-Oct-16 11:33N 17°30' W 063°01'1 0.7
2013-Oct-16 10:33N 17°29' W 063°00'0 0.0
2013-Oct-16 09:33N 17°29' W 063°00'0 0.0
2013-Oct-16 08:33N 17°29' W 063°00'0 0.0
2013-Oct-16 07:30N 17°29' W 063°00'0 0.0
2013-Oct-16 06:33N 17°29' W 063°00'0 0.0
2013-Oct-16 05:33N 17°29' W 063°00'0 0.0
2013-Oct-16 04:33N 17°29' W 063°00'0 0.0
2013-Oct-16 03:33N 17°29' W 063°00'0 0.0
2013-Oct-16 02:33N 17°29' W 063°00'0 0.0
2013-Oct-16 00:33N 17°29' W 063°00'1 0.6
2013-Oct-15 23:30N 17°29' W 062°60'0 0.4
2013-Oct-15 22:33N 17°29' W 062°59'0 0.0
2013-Oct-15 21:33N 17°29' W 062°59'0 0.0
2013-Oct-15 20:33N 17°29' W 062°59'0 0.0
2013-Oct-15 19:33N 17°29' W 062°59'0 0.0
2013-Oct-15 18:33N 17°29' W 062°59'0 0.0
2013-Oct-15 17:32N 17°29' W 062°59'0 0.0
2013-Oct-15 16:33N 17°29' W 062°59'1 0.9
2013-Oct-15 15:33N 17°29' W 063°00'0 0.0
2013-Oct-15 14:31N 17°29' W 063°00'0 0.1
2013-Oct-15 13:32N 17°29' W 063°00'0 0.0
2013-Oct-15 12:33N 17°29' W 063°00'0 0.0
2013-Oct-15 11:27N 17°29' W 063°00'1 1.6
2013-Oct-15 10:33N 17°31' W 063°01'1 1.4
2013-Oct-15 09:33N 17°29' W 063°00'0 0.0
2013-Oct-15 08:26N 17°29' W 063°00'0 0.0
2013-Oct-15 07:33N 17°29' W 063°00'0 0.0
2013-Oct-15 06:22N 17°29' W 063°00'1 0.7
2013-Oct-15 05:33N 17°30' W 063°01'1 0.9
2013-Oct-15 04:34N 17°29' W 063°00'0 0.0
2013-Oct-15 03:33N 17°29' W 063°00'0 0.1
2013-Oct-15 02:33N 17°29' W 063°00'0 0.0
2013-Oct-15 01:33N 17°29' W 063°00'0 0.0
2013-Oct-15 00:32N 17°29' W 063°00'0 0.2
2013-Oct-14 23:33N 17°29' W 063°01'1 0.6
2013-Oct-14 22:32N 17°29' W 062°60'1 0.6
2013-Oct-14 21:33N 17°29' W 063°00'0 0.0
2013-Oct-14 20:33N 17°29' W 063°00'0 0.0
2013-Oct-14 19:33N 17°29' W 063°00'0 0.0
2013-Oct-14 18:33N 17°29' W 063°00'0 0.5
2013-Oct-14 17:33N 17°29' W 063°00'0 0.4
2013-Oct-14 16:32N 17°29' W 063°00'1 1.0
2013-Oct-14 15:33N 17°30' W 063°01'0 0.1
2013-Oct-14 14:33N 17°30' W 063°01'0 0.0
2013-Oct-14 13:33N 17°30' W 063°01'0 0.0
2013-Oct-14 12:33N 17°30' W 063°01'0 0.0
2013-Oct-14 11:33N 17°30' W 063°01'0 0.1
2013-Oct-14 10:33N 17°30' W 063°01'1 0.9
2013-Oct-14 09:27N 17°29' W 063°00'0 0.5
2013-Oct-14 08:33N 17°30' W 063°00'0 0.5
2013-Oct-14 07:32N 17°29' W 063°00'0 0.0
2013-Oct-14 06:33N 17°29' W 063°00'  

Dump ship's entire track history

sailing weather and tide predictions

Chieftan — FNSB — position and weather